Terminal Aerodrome Forecast
Issued by NWS

Home | Current Version | Previous Version | Graphics & Text | Print | Product List | Glossary On
Versions: 1 2 3 4 5 6 7 8 9 10 11 12 13 14 15 16 17 18 19 20 21 22
000
FTUS43 KBIS 220000 CCA
TAFDIK
TAF COR
KDIK 220000Z 2200/2224 29020G29KT P6SM BKN080
     FM220300 27014KT P6SM SKC WS020/29035KT
     FM220700 22009KT P6SM FEW250
     FM221500 22015G23KT P6SM BKN110
     FM221900 24021G29KT P6SM OVC090=

USA.gov is the U.S. government's official web portal to all federal, state and local government web resources and services.